createdAt,value
2022-12-31T00:00:42.022Z,1.30
2022-12-31T00:03:44.888Z,1.23
2022-12-31T00:06:47.436Z,1.67
2022-12-31T00:09:49.096Z,1.80
2022-12-31T00:12:50.885Z,1.93
2022-12-31T00:15:52.895Z,2.10
2022-12-31T00:18:59.226Z,1.57
2022-12-31T00:22:01.313Z,2.20
2022-12-31T00:25:03.094Z,1.97
2022-12-31T00:28:05.155Z,1.50
2022-12-31T00:31:15.972Z,2.00
2022-12-31T00:34:17.583Z,1.80
2022-12-31T00:37:19.189Z,1.80
2022-12-31T00:40:20.909Z,2.03
2022-12-31T00:43:22.710Z,2.10
2022-12-31T00:46:25.145Z,1.63
2022-12-31T00:49:27.404Z,1.40
2022-12-31T00:52:29.226Z,1.57
2022-12-31T00:55:31.510Z,1.83
2022-12-31T00:58:34.033Z,1.77
2022-12-31T01:01:38.998Z,1.70
2022-12-31T01:04:40.756Z,1.33
2022-12-31T01:07:42.437Z,1.60
2022-12-31T01:11:08.111Z,1.80
2022-12-31T01:14:15.517Z,1.50
2022-12-31T01:17:17.236Z,1.43
2022-12-31T01:20:19.009Z,1.80
2022-12-31T01:23:20.692Z,1.90
2022-12-31T01:26:22.539Z,1.70
2022-12-31T01:29:24.629Z,1.47
2022-12-31T01:32:26.316Z,1.53
2022-12-31T01:35:28.009Z,1.53
2022-12-31T01:38:30.160Z,1.50
2022-12-31T01:41:36.827Z,1.40
2022-12-31T01:44:38.789Z,1.93
2022-12-31T01:47:52.670Z,1.43
2022-12-31T01:50:55.105Z,1.57
2022-12-31T01:54:00.700Z,1.50
2022-12-31T01:57:03.666Z,1.37
2022-12-31T02:00:06.727Z,1.50
2022-12-31T02:03:08.785Z,1.50
2022-12-31T02:06:24.008Z,1.30
2022-12-31T02:09:26.581Z,1.40
2022-12-31T02:12:30.980Z,1.57
2022-12-31T02:16:02.374Z,1.50
2022-12-31T02:19:25.749Z,1.33
2022-12-31T02:22:31.271Z,1.13
2022-12-31T02:25:48.750Z,1.40
2022-12-31T02:29:09.344Z,1.13
2022-12-31T02:32:16.646Z,1.40
2022-12-31T02:35:37.985Z,1.60
2022-12-31T02:38:44.598Z,1.40
2022-12-31T02:41:50.930Z,1.17
2022-12-31T02:44:52.723Z,1.30
2022-12-31T02:48:32.611Z,1.30
2022-12-31T02:51:53.074Z,1.27
2022-12-31T02:55:18.105Z,1.10
2022-12-31T02:59:07.445Z,1.50
2022-12-31T03:02:14.958Z,1.50
2022-12-31T03:05:20.890Z,1.70
2022-12-31T03:08:24.266Z,1.37
2022-12-31T03:11:44.868Z,1.30
2022-12-31T03:14:47.189Z,1.53
2022-12-31T03:18:14.396Z,1.30
2022-12-31T03:21:37.793Z,1.13
2022-12-31T03:24:58.115Z,1.13
2022-12-31T03:28:04.151Z,1.10
2022-12-31T03:31:08.698Z,1.37
2022-12-31T03:34:10.474Z,1.10
2022-12-31T03:37:12.069Z,1.40
2022-12-31T03:40:18.389Z,1.30
2022-12-31T03:43:20.636Z,1.10
2022-12-31T03:46:22.431Z,1.60
2022-12-31T03:49:24.057Z,1.20
2022-12-31T03:52:25.733Z,1.30
2022-12-31T03:55:27.566Z,1.30
2022-12-31T03:58:29.497Z,1.20
2022-12-31T04:01:32.917Z,1.40
2022-12-31T04:04:34.679Z,1.20
2022-12-31T04:08:13.468Z,1.27
2022-12-31T04:11:20.642Z,1.10
2022-12-31T04:14:31.989Z,1.17
2022-12-31T04:17:34.027Z,1.60
2022-12-31T04:20:35.800Z,1.20
2022-12-31T04:23:37.619Z,1.30
2022-12-31T04:26:39.459Z,1.50
2022-12-31T04:29:41.789Z,1.40
2022-12-31T04:32:44.463Z,1.50
2022-12-31T04:35:46.322Z,1.43
2022-12-31T04:38:48.205Z,1.40
2022-12-31T04:41:50.027Z,1.47
2022-12-31T04:44:54.225Z,1.70
2022-12-31T04:47:55.869Z,1.30
2022-12-31T04:50:57.918Z,1.33
2022-12-31T04:54:00.036Z,1.50
2022-12-31T04:57:02.052Z,1.27
2022-12-31T05:00:04.960Z,2.17
2022-12-31T05:03:06.733Z,1.30
2022-12-31T05:06:17.165Z,1.30
2022-12-31T05:09:18.886Z,1.30
2022-12-31T05:12:20.811Z,1.40
2022-12-31T05:15:25.349Z,1.63
2022-12-31T05:18:27.114Z,1.27
2022-12-31T05:21:29.071Z,1.20
2022-12-31T05:24:30.939Z,1.47
2022-12-31T05:27:33.240Z,1.30
2022-12-31T05:30:35.157Z,0.97
2022-12-31T05:33:42.650Z,1.40
2022-12-31T05:36:49.823Z,1.13
2022-12-31T05:39:51.896Z,1.40
2022-12-31T05:42:54.053Z,1.20
2022-12-31T05:45:55.919Z,1.10
2022-12-31T05:48:57.985Z,1.17
2022-12-31T05:52:05.600Z,1.40
2022-12-31T05:55:07.852Z,1.17
2022-12-31T05:58:09.560Z,1.00
2022-12-31T06:01:11.198Z,1.23
2022-12-31T06:04:15.687Z,1.20
2022-12-31T06:07:17.932Z,1.40
2022-12-31T06:10:19.722Z,1.23
2022-12-31T06:13:21.475Z,1.60
2022-12-31T06:16:23.254Z,1.20
2022-12-31T06:19:27.183Z,1.17
2022-12-31T06:22:29.284Z,1.20
2022-12-31T06:25:31.088Z,1.20
2022-12-31T06:28:33.980Z,1.53
2022-12-31T06:31:36.595Z,1.10
2022-12-31T06:34:38.607Z,1.30
2022-12-31T06:37:40.760Z,1.40
2022-12-31T06:40:45.540Z,1.20
2022-12-31T06:43:47.224Z,1.20
2022-12-31T06:46:54.834Z,1.30
2022-12-31T06:49:56.813Z,1.10
2022-12-31T06:52:58.850Z,1.40
2022-12-31T06:56:18.862Z,1.17
2022-12-31T06:59:26.682Z,1.33
2022-12-31T07:02:53.958Z,1.50
2022-12-31T07:06:10.618Z,1.30
2022-12-31T07:09:29.280Z,1.20
2022-12-31T07:12:57.036Z,1.23
2022-12-31T07:16:32.958Z,2.10
2022-12-31T07:20:03.757Z,1.37
2022-12-31T07:23:10.385Z,1.20
2022-12-31T07:27:02.931Z,1.30
2022-12-31T07:30:18.167Z,1.37
2022-12-31T07:33:41.536Z,1.43
2022-12-31T07:37:21.551Z,1.93
2022-12-31T07:40:58.025Z,1.63
2022-12-31T07:44:08.489Z,1.63
2022-12-31T07:47:21.784Z,1.60
2022-12-31T07:50:27.006Z,1.57
2022-12-31T07:53:29.301Z,1.40
2022-12-31T07:56:31.562Z,1.67
2022-12-31T08:00:07.640Z,1.80
2022-12-31T08:03:17.879Z,1.63
2022-12-31T08:06:33.745Z,1.40
2022-12-31T08:09:47.720Z,1.60
2022-12-31T08:12:50.292Z,1.70
2022-12-31T08:16:04.635Z,2.03
2022-12-31T08:19:10.337Z,1.50
2022-12-31T08:22:20.975Z,1.70
2022-12-31T08:25:25.393Z,1.77
2022-12-31T08:28:43.985Z,1.63
2022-12-31T08:32:00.339Z,1.90
2022-12-31T08:35:25.086Z,2.43
2022-12-31T08:38:33.213Z,2.50
2022-12-31T08:41:49.168Z,1.97
2022-12-31T08:45:21.693Z,1.83
2022-12-31T08:48:41.442Z,1.90
2022-12-31T08:51:43.276Z,1.83
2022-12-31T08:54:45.700Z,1.60
2022-12-31T08:58:11.675Z,1.90
2022-12-31T09:01:15.017Z,1.80
2022-12-31T09:04:44.407Z,1.83
2022-12-31T09:08:09.354Z,1.70
2022-12-31T09:11:26.273Z,1.90
2022-12-31T09:14:43.144Z,2.03
2022-12-31T09:17:50.517Z,1.87
2022-12-31T09:20:52.592Z,1.60
2022-12-31T09:23:54.783Z,1.60
2022-12-31T09:27:25.448Z,1.73
2022-12-31T09:30:37.935Z,1.40
2022-12-31T09:34:17.567Z,1.60
2022-12-31T09:37:56.919Z,1.90
2022-12-31T09:42:01.276Z,1.90
2022-12-31T09:45:25.094Z,1.83
2022-12-31T09:48:37.700Z,1.40
2022-12-31T09:52:19.947Z,1.90
2022-12-31T09:55:31.681Z,1.80
2022-12-31T09:58:44.321Z,1.80
2022-12-31T10:01:56.667Z,2.00
2022-12-31T10:05:19.793Z,1.80
2022-12-31T10:08:57.468Z,1.77
2022-12-31T10:12:39.601Z,1.40
2022-12-31T10:15:59.943Z,2.00
2022-12-31T10:19:20.387Z,1.57
2022-12-31T10:22:45.781Z,1.70
2022-12-31T10:26:35.485Z,1.47
2022-12-31T10:29:47.363Z,2.00
2022-12-31T10:33:15.419Z,1.63
2022-12-31T10:36:52.324Z,1.70
2022-12-31T10:40:34.042Z,1.50
2022-12-31T10:44:12.532Z,1.77
2022-12-31T10:47:41.146Z,1.60
2022-12-31T10:51:36.245Z,1.60
2022-12-31T10:55:25.470Z,1.57
2022-12-31T10:58:54.719Z,1.83
2022-12-31T11:02:34.015Z,1.60
2022-12-31T11:07:03.585Z,1.60
2022-12-31T11:09:57.010Z,1.63
2022-12-31T11:13:33.818Z,1.67
2022-12-31T11:17:02.660Z,1.60
2022-12-31T11:20:23.792Z,1.40
2022-12-31T11:23:56.245Z,1.63
2022-12-31T11:27:20.456Z,1.70
2022-12-31T11:30:31.228Z,1.70
2022-12-31T11:33:52.874Z,1.60
2022-12-31T11:37:40.086Z,2.10
2022-12-31T11:40:48.004Z,1.37
2022-12-31T11:44:13.012Z,1.83
2022-12-31T11:47:41.168Z,1.80
2022-12-31T11:51:25.670Z,1.87
2022-12-31T11:54:45.673Z,1.97
2022-12-31T11:57:54.089Z,1.47
2022-12-31T12:01:00.067Z,1.80
2022-12-31T12:04:03.135Z,1.50
2022-12-31T12:07:17.595Z,1.70
2022-12-31T12:10:23.389Z,2.37
2022-12-31T12:13:27.672Z,1.70
2022-12-31T12:16:29.358Z,2.30
2022-12-31T12:19:33.053Z,2.60
2022-12-31T12:22:34.808Z,2.07
2022-12-31T12:25:40.693Z,2.83
2022-12-31T12:28:45.480Z,1.80
2022-12-31T12:32:01.046Z,1.37
2022-12-31T12:35:19.534Z,1.53
2022-12-31T12:38:23.546Z,1.23
2022-12-31T12:41:26.430Z,1.50
2022-12-31T12:44:28.317Z,1.60
2022-12-31T12:47:30.821Z,1.60
2022-12-31T12:50:44.804Z,1.67
2022-12-31T12:54:14.258Z,1.90
2022-12-31T12:57:28.435Z,1.37
2022-12-31T13:00:46.324Z,1.43
2022-12-31T13:04:38.164Z,1.47
2022-12-31T13:07:51.172Z,1.57
2022-12-31T13:11:03.289Z,1.60
2022-12-31T13:14:14.757Z,1.70
2022-12-31T13:17:34.565Z,1.80
2022-12-31T13:20:48.967Z,1.50
2022-12-31T13:24:11.591Z,1.47
2022-12-31T13:27:25.500Z,1.50
2022-12-31T13:30:51.500Z,1.33
2022-12-31T13:33:58.353Z,1.50
2022-12-31T13:37:05.750Z,1.40
2022-12-31T13:40:24.187Z,1.67
2022-12-31T13:43:44.537Z,1.30
2022-12-31T13:47:04.367Z,1.60
2022-12-31T13:50:15.213Z,1.40
2022-12-31T13:53:44.921Z,1.57
2022-12-31T13:56:50.686Z,1.60
2022-12-31T14:00:00.451Z,1.50
2022-12-31T14:03:27.023Z,1.37
2022-12-31T14:06:51.438Z,1.50
2022-12-31T14:09:53.219Z,1.73
2022-12-31T14:13:34.831Z,1.37
2022-12-31T14:16:59.741Z,1.30
2022-12-31T14:20:25.944Z,1.60
2022-12-31T14:23:44.334Z,1.37
2022-12-31T14:26:51.132Z,1.40
2022-12-31T14:30:16.207Z,1.27
2022-12-31T14:33:34.087Z,1.30
2022-12-31T14:36:42.906Z,1.30
2022-12-31T14:39:54.605Z,1.43
2022-12-31T14:43:23.620Z,1.80
2022-12-31T14:46:37.848Z,1.30
2022-12-31T14:49:49.999Z,1.40
2022-12-31T14:52:54.880Z,1.43
2022-12-31T14:56:05.035Z,1.40
2022-12-31T14:59:28.026Z,1.60
2022-12-31T15:02:34.963Z,1.00
2022-12-31T15:05:38.087Z,1.40
2022-12-31T15:09:05.693Z,1.20
2022-12-31T15:12:32.334Z,1.13
2022-12-31T15:16:01.738Z,1.23
2022-12-31T15:19:11.228Z,1.10
2022-12-31T15:22:27.926Z,1.10
2022-12-31T15:25:40.537Z,1.60
2022-12-31T15:28:43.013Z,1.30
2022-12-31T15:31:46.748Z,1.20
2022-12-31T15:35:04.277Z,1.27
2022-12-31T15:38:15.011Z,1.50
2022-12-31T15:41:25.872Z,1.70
2022-12-31T15:44:35.487Z,1.90
2022-12-31T15:47:41.345Z,2.00
2022-12-31T15:50:43.926Z,1.73
2022-12-31T15:53:52.521Z,1.87
2022-12-31T15:56:54.425Z,2.20
2022-12-31T16:00:00.313Z,1.87
2022-12-31T16:03:02.490Z,1.77
2022-12-31T16:06:11.126Z,2.40
2022-12-31T16:09:23.145Z,2.67
2022-12-31T16:12:33.045Z,2.20
2022-12-31T16:15:37.020Z,2.17
2022-12-31T16:18:43.602Z,1.87
2022-12-31T16:21:46.131Z,3.40
2022-12-31T16:28:30.312Z,2.23
2022-12-31T16:31:32.281Z,1.90
2022-12-31T16:34:37.568Z,2.40
2022-12-31T16:37:39.147Z,1.80
2022-12-31T16:40:43.474Z,2.00
2022-12-31T16:43:47.820Z,1.83
2022-12-31T16:46:50.165Z,1.80
2022-12-31T16:50:04.391Z,2.00
2022-12-31T16:53:07.994Z,2.00
2022-12-31T16:56:09.712Z,1.93
2022-12-31T16:59:24.727Z,2.10
2022-12-31T17:02:40.385Z,1.80
2022-12-31T17:06:06.933Z,2.07
2022-12-31T17:09:20.804Z,2.23
2022-12-31T17:12:24.732Z,1.97
2022-12-31T17:15:30.140Z,1.73
2022-12-31T17:18:37.738Z,2.67
2022-12-31T17:21:48.481Z,2.10
2022-12-31T17:24:51.463Z,2.27
2022-12-31T17:28:05.182Z,2.03
2022-12-31T17:31:34.190Z,2.23
2022-12-31T17:34:39.990Z,2.47
2022-12-31T17:37:41.611Z,2.80
2022-12-31T17:40:52.130Z,2.60
2022-12-31T17:43:56.075Z,2.23
2022-12-31T17:46:58.015Z,2.37
2022-12-31T17:50:19.810Z,2.33
2022-12-31T17:53:21.767Z,2.30
2022-12-31T17:56:23.409Z,2.70
2022-12-31T17:59:29.574Z,2.60
2022-12-31T18:02:31.592Z,4.30
2022-12-31T18:05:33.313Z,3.10
2022-12-31T18:08:34.941Z,2.30
2022-12-31T18:11:38.367Z,2.07
2022-12-31T18:14:45.394Z,2.13
2022-12-31T18:17:47.241Z,1.80
2022-12-31T18:20:51.862Z,1.60
2022-12-31T18:26:55.145Z,1.57
2022-12-31T18:30:02.297Z,2.00
2022-12-31T18:33:06.711Z,2.57
2022-12-31T18:36:16.737Z,2.30
2022-12-31T18:39:18.523Z,3.63
2022-12-31T18:42:22.905Z,2.77
2022-12-31T18:45:24.866Z,4.37
2022-12-31T18:48:26.537Z,2.80
2022-12-31T18:51:32.214Z,3.60
2022-12-31T18:54:34.262Z,4.63
2022-12-31T18:57:35.816Z,3.70
2022-12-31T19:00:38.264Z,2.63
2022-12-31T19:03:39.958Z,3.17
2022-12-31T19:06:44.279Z,3.40
2022-12-31T19:09:47.181Z,3.30
2022-12-31T19:12:50.537Z,3.47
2022-12-31T19:15:53.350Z,3.70
2022-12-31T19:18:54.984Z,3.70
2022-12-31T19:21:56.669Z,3.33
2022-12-31T19:24:58.274Z,3.17
2022-12-31T19:28:03.930Z,3.73
2022-12-31T19:31:05.617Z,3.00
2022-12-31T19:34:07.216Z,2.73
2022-12-31T19:37:15.047Z,3.10
2022-12-31T19:40:22.753Z,3.00
2022-12-31T19:43:24.826Z,3.43
2022-12-31T19:46:27.616Z,3.13
2022-12-31T19:49:29.339Z,3.33
2022-12-31T19:52:31.176Z,3.80
2022-12-31T19:55:33.212Z,3.87
2022-12-31T19:58:34.936Z,3.17
2022-12-31T20:01:36.650Z,3.60
2022-12-31T20:04:38.348Z,3.20
2022-12-31T20:07:40.481Z,3.60
2022-12-31T20:10:43.215Z,3.53
2022-12-31T20:13:46.088Z,2.83
2022-12-31T20:16:47.744Z,3.50
2022-12-31T20:19:49.561Z,3.30
2022-12-31T20:22:54.130Z,3.80
2022-12-31T20:25:59.785Z,4.43
2022-12-31T20:29:01.491Z,4.40
2022-12-31T20:32:03.842Z,4.50
2022-12-31T20:35:06.114Z,4.33
2022-12-31T20:38:07.994Z,4.33
2022-12-31T20:41:24.855Z,5.07
2022-12-31T20:44:26.632Z,5.03
2022-12-31T20:47:28.254Z,4.43
2022-12-31T20:50:29.846Z,5.00
2022-12-31T20:53:31.521Z,4.43
2022-12-31T20:56:35.596Z,5.40
2022-12-31T20:59:37.244Z,4.80
2022-12-31T21:02:42.484Z,6.33
2022-12-31T21:05:50.092Z,4.90
2022-12-31T21:08:52.439Z,4.33
2022-12-31T21:12:12.806Z,4.67
2022-12-31T21:15:14.588Z,4.17
2022-12-31T21:18:16.841Z,5.03
2022-12-31T21:21:19.059Z,4.17
2022-12-31T21:24:24.072Z,5.40
2022-12-31T21:27:26.027Z,9.40
2022-12-31T21:30:27.678Z,4.87
2022-12-31T21:33:29.452Z,5.80
2022-12-31T21:36:31.165Z,6.43
2022-12-31T21:39:32.837Z,5.90
2022-12-31T21:42:34.503Z,5.00
2022-12-31T21:45:36.198Z,4.37
2022-12-31T21:48:37.876Z,3.50
2022-12-31T21:51:58.072Z,4.57
2022-12-31T21:55:20.074Z,4.60
2022-12-31T21:58:26.825Z,4.17
2022-12-31T22:01:47.619Z,4.67
2022-12-31T22:05:14.880Z,3.97
2022-12-31T22:08:11.509Z,3.70
2022-12-31T22:11:14.603Z,6.40
2022-12-31T22:14:16.438Z,6.23
2022-12-31T22:17:18.439Z,5.27
2022-12-31T22:20:29.352Z,5.83
2022-12-31T22:23:32.407Z,6.97
2022-12-31T22:26:34.165Z,7.00
2022-12-31T22:29:35.811Z,6.57
2022-12-31T22:32:37.434Z,7.27
2022-12-31T22:35:39.016Z,8.00
2022-12-31T22:38:40.779Z,6.67
2022-12-31T22:41:42.355Z,6.57
2022-12-31T22:44:43.928Z,5.90
2022-12-31T22:47:45.643Z,5.33
2022-12-31T22:50:54.933Z,5.03
2022-12-31T22:53:56.679Z,4.60
2022-12-31T22:56:58.271Z,4.97
2022-12-31T22:59:59.903Z,5.00
2022-12-31T23:03:01.905Z,19.33
2022-12-31T23:06:03.674Z,120.30
2022-12-31T23:09:24.255Z,256.60
2022-12-31T23:12:25.851Z,196.63
2022-12-31T23:15:46.089Z,195.83
2022-12-31T23:19:06.533Z,131.07
2022-12-31T23:22:26.805Z,110.90
2022-12-31T23:25:30.764Z,110.07
2022-12-31T23:28:32.431Z,122.37
2022-12-31T23:31:34.153Z,104.20
2022-12-31T23:34:36.469Z,79.07
2022-12-31T23:37:38.250Z,43.90
2022-12-31T23:40:39.971Z,44.60
2022-12-31T23:43:41.708Z,36.80
2022-12-31T23:46:44.668Z,38.47
2022-12-31T23:49:46.292Z,37.63
2022-12-31T23:52:47.932Z,37.80
2022-12-31T23:55:50.488Z,33.23
2022-12-31T23:58:59.396Z,23.50
